sensor_id;sensor_type;location;lat;lon;timestamp;temperature;humidity
810;DHT22;387;48.772;9.186;2023-04-03T00:01:34;4.90;74.60
810;DHT22;387;48.772;9.186;2023-04-03T00:04:00;4.90;74.50
810;DHT22;387;48.772;9.186;2023-04-03T00:06:26;4.90;74.50
810;DHT22;387;48.772;9.186;2023-04-03T00:08:52;4.90;74.50
810;DHT22;387;48.772;9.186;2023-04-03T00:11:18;4.80;74.20
810;DHT22;387;48.772;9.186;2023-04-03T00:13:44;4.80;74.30
810;DHT22;387;48.772;9.186;2023-04-03T00:16:11;4.80;74.50
810;DHT22;387;48.772;9.186;2023-04-03T00:18:37;4.80;74.30
810;DHT22;387;48.772;9.186;2023-04-03T00:21:04;4.80;74.30
810;DHT22;387;48.772;9.186;2023-04-03T00:23:30;4.80;74.30
810;DHT22;387;48.772;9.186;2023-04-03T00:25:55;4.80;74.30
810;DHT22;387;48.772;9.186;2023-04-03T00:28:21;4.80;74.50
810;DHT22;387;48.772;9.186;2023-04-03T00:30:49;4.90;74.50
810;DHT22;387;48.772;9.186;2023-04-03T00:33:15;4.90;74.30
810;DHT22;387;48.772;9.186;2023-04-03T00:35:41;4.90;74.20
810;DHT22;387;48.772;9.186;2023-04-03T00:38:07;4.90;74.30
810;DHT22;387;48.772;9.186;2023-04-03T00:40:38;4.90;74.20
810;DHT22;387;48.772;9.186;2023-04-03T00:43:21;4.80;74.00
810;DHT22;387;48.772;9.186;2023-04-03T00:45:50;4.80;74.20
810;DHT22;387;48.772;9.186;2023-04-03T00:48:40;4.90;74.30
810;DHT22;387;48.772;9.186;2023-04-03T00:51:11;4.90;74.20
810;DHT22;387;48.772;9.186;2023-04-03T00:53:50;4.80;74.30
810;DHT22;387;48.772;9.186;2023-04-03T00:56:19;4.80;74.30
810;DHT22;387;48.772;9.186;2023-04-03T00:58:51;4.80;74.60
810;DHT22;387;48.772;9.186;2023-04-03T01:01:23;4.80;74.50
810;DHT22;387;48.772;9.186;2023-04-03T01:03:50;4.80;74.30
810;DHT22;387;48.772;9.186;2023-04-03T01:06:17;4.80;74.50
810;DHT22;387;48.772;9.186;2023-04-03T01:08:45;4.80;74.50
810;DHT22;387;48.772;9.186;2023-04-03T01:11:12;4.80;74.60
810;DHT22;387;48.772;9.186;2023-04-03T01:13:37;4.80;74.60
810;DHT22;387;48.772;9.186;2023-04-03T01:16:05;4.80;74.80
810;DHT22;387;48.772;9.186;2023-04-03T01:18:32;4.80;74.60
810;DHT22;387;48.772;9.186;2023-04-03T01:24:08;4.70;74.80
810;DHT22;387;48.772;9.186;2023-04-03T01:26:35;4.60;75.20
810;DHT22;387;48.772;9.186;2023-04-03T01:29:01;4.50;75.40
810;DHT22;387;48.772;9.186;2023-04-03T01:31:28;4.60;75.40
810;DHT22;387;48.772;9.186;2023-04-03T01:33:55;4.60;75.40
810;DHT22;387;48.772;9.186;2023-04-03T01:36:24;4.60;74.90
810;DHT22;387;48.772;9.186;2023-04-03T01:38:50;4.60;75.10
810;DHT22;387;48.772;9.186;2023-04-03T01:41:17;4.60;75.10
810;DHT22;387;48.772;9.186;2023-04-03T01:43:43;4.60;75.10
810;DHT22;387;48.772;9.186;2023-04-03T01:46:08;4.60;75.10
810;DHT22;387;48.772;9.186;2023-04-03T01:48:34;4.60;74.90
810;DHT22;387;48.772;9.186;2023-04-03T01:51:00;4.50;74.90
810;DHT22;387;48.772;9.186;2023-04-03T01:53:26;4.60;75.20
810;DHT22;387;48.772;9.186;2023-04-03T01:55:51;4.60;75.10
810;DHT22;387;48.772;9.186;2023-04-03T01:58:17;4.60;74.90
810;DHT22;387;48.772;9.186;2023-04-03T02:00:42;4.60;74.80
810;DHT22;387;48.772;9.186;2023-04-03T02:03:08;4.60;75.10
810;DHT22;387;48.772;9.186;2023-04-03T02:05:34;4.60;74.80
810;DHT22;387;48.772;9.186;2023-04-03T02:08:00;4.50;74.60
810;DHT22;387;48.772;9.186;2023-04-03T02:10:26;4.50;74.90
810;DHT22;387;48.772;9.186;2023-04-03T02:12:51;4.50;74.90
810;DHT22;387;48.772;9.186;2023-04-03T02:15:17;4.50;74.60
810;DHT22;387;48.772;9.186;2023-04-03T02:17:43;4.50;74.30
810;DHT22;387;48.772;9.186;2023-04-03T02:20:09;4.50;73.90
810;DHT22;387;48.772;9.186;2023-04-03T02:22:35;4.40;74.50
810;DHT22;387;48.772;9.186;2023-04-03T02:25:01;4.50;74.60
810;DHT22;387;48.772;9.186;2023-04-03T02:27:27;4.50;74.50
810;DHT22;387;48.772;9.186;2023-04-03T02:29:52;4.50;74.00
810;DHT22;387;48.772;9.186;2023-04-03T02:32:18;4.40;74.30
810;DHT22;387;48.772;9.186;2023-04-03T02:34:44;4.40;73.90
810;DHT22;387;48.772;9.186;2023-04-03T02:37:09;4.50;73.30
810;DHT22;387;48.772;9.186;2023-04-03T02:39:35;4.50;73.30
810;DHT22;387;48.772;9.186;2023-04-03T02:42:01;4.60;73.60
810;DHT22;387;48.772;9.186;2023-04-03T02:44:26;4.60;73.90
810;DHT22;387;48.772;9.186;2023-04-03T02:46:55;4.60;73.70
810;DHT22;387;48.772;9.186;2023-04-03T02:49:20;4.70;73.60
810;DHT22;387;48.772;9.186;2023-04-03T02:51:46;4.70;73.30
810;DHT22;387;48.772;9.186;2023-04-03T02:54:13;4.60;73.00
810;DHT22;387;48.772;9.186;2023-04-03T02:56:38;4.60;73.00
810;DHT22;387;48.772;9.186;2023-04-03T02:59:04;4.70;73.00
810;DHT22;387;48.772;9.186;2023-04-03T03:01:30;4.60;72.40
810;DHT22;387;48.772;9.186;2023-04-03T03:03:58;4.50;72.60
810;DHT22;387;48.772;9.186;2023-04-03T03:06:24;4.50;72.40
810;DHT22;387;48.772;9.186;2023-04-03T03:08:50;4.50;72.70
810;DHT22;387;48.772;9.186;2023-04-03T03:11:15;4.50;72.70
810;DHT22;387;48.772;9.186;2023-04-03T03:13:41;4.50;72.60
810;DHT22;387;48.772;9.186;2023-04-03T03:16:07;4.50;72.40
810;DHT22;387;48.772;9.186;2023-04-03T03:18:33;4.40;72.90
810;DHT22;387;48.772;9.186;2023-04-03T03:21:00;4.40;73.00
810;DHT22;387;48.772;9.186;2023-04-03T03:23:27;4.50;73.20
810;DHT22;387;48.772;9.186;2023-04-03T03:25:58;4.50;72.60
810;DHT22;387;48.772;9.186;2023-04-03T03:28:24;4.60;72.40
810;DHT22;387;48.772;9.186;2023-04-03T03:30:50;4.70;72.30
810;DHT22;387;48.772;9.186;2023-04-03T03:33:16;4.60;72.30
810;DHT22;387;48.772;9.186;2023-04-03T03:35:42;4.60;72.40
810;DHT22;387;48.772;9.186;2023-04-03T03:38:08;4.70;72.60
810;DHT22;387;48.772;9.186;2023-04-03T03:40:34;4.80;72.60
810;DHT22;387;48.772;9.186;2023-04-03T03:42:59;4.70;72.00
810;DHT22;387;48.772;9.186;2023-04-03T03:45:25;4.70;72.30
810;DHT22;387;48.772;9.186;2023-04-03T03:47:51;4.70;72.60
810;DHT22;387;48.772;9.186;2023-04-03T03:50:16;4.80;72.40
810;DHT22;387;48.772;9.186;2023-04-03T03:52:42;4.80;72.30
810;DHT22;387;48.772;9.186;2023-04-03T03:55:07;4.80;72.10
810;DHT22;387;48.772;9.186;2023-04-03T03:57:33;4.80;72.10
810;DHT22;387;48.772;9.186;2023-04-03T03:59:59;4.80;72.30
810;DHT22;387;48.772;9.186;2023-04-03T04:02:24;4.90;71.80
810;DHT22;387;48.772;9.186;2023-04-03T04:04:50;4.90;71.30
810;DHT22;387;48.772;9.186;2023-04-03T04:07:15;4.90;71.40
810;DHT22;387;48.772;9.186;2023-04-03T04:09:41;4.80;71.30
810;DHT22;387;48.772;9.186;2023-04-03T04:12:07;4.80;71.00
810;DHT22;387;48.772;9.186;2023-04-03T04:14:32;4.80;71.00
810;DHT22;387;48.772;9.186;2023-04-03T04:16:58;4.80;71.10
810;DHT22;387;48.772;9.186;2023-04-03T04:19:23;4.70;71.10
810;DHT22;387;48.772;9.186;2023-04-03T04:21:49;4.70;71.10
810;DHT22;387;48.772;9.186;2023-04-03T04:24:15;4.70;71.30
810;DHT22;387;48.772;9.186;2023-04-03T04:26:41;4.70;71.10
810;DHT22;387;48.772;9.186;2023-04-03T04:29:08;4.80;71.10
810;DHT22;387;48.772;9.186;2023-04-03T04:31:34;4.80;71.00
810;DHT22;387;48.772;9.186;2023-04-03T04:33:59;4.80;70.80
810;DHT22;387;48.772;9.186;2023-04-03T04:36:25;4.70;70.80
810;DHT22;387;48.772;9.186;2023-04-03T04:38:50;4.70;71.00
810;DHT22;387;48.772;9.186;2023-04-03T04:41:19;4.80;70.50
810;DHT22;387;48.772;9.186;2023-04-03T04:43:46;4.80;70.70
810;DHT22;387;48.772;9.186;2023-04-03T04:46:12;4.80;70.70
810;DHT22;387;48.772;9.186;2023-04-03T04:48:37;4.80;71.00
810;DHT22;387;48.772;9.186;2023-04-03T04:51:03;4.70;70.70
810;DHT22;387;48.772;9.186;2023-04-03T04:53:29;4.70;70.80
810;DHT22;387;48.772;9.186;2023-04-03T04:55:55;4.70;70.80
810;DHT22;387;48.772;9.186;2023-04-03T04:58:21;4.70;71.00
810;DHT22;387;48.772;9.186;2023-04-03T05:00:46;4.70;71.00
810;DHT22;387;48.772;9.186;2023-04-03T05:03:12;4.70;71.00
810;DHT22;387;48.772;9.186;2023-04-03T05:05:38;4.70;71.30
810;DHT22;387;48.772;9.186;2023-04-03T05:08:04;4.70;71.10
810;DHT22;387;48.772;9.186;2023-04-03T05:10:30;4.70;71.30
810;DHT22;387;48.772;9.186;2023-04-03T05:12:56;4.80;71.00
810;DHT22;387;48.772;9.186;2023-04-03T05:15:22;4.80;71.10
810;DHT22;387;48.772;9.186;2023-04-03T05:17:47;4.90;70.80
810;DHT22;387;48.772;9.186;2023-04-03T05:20:13;4.90;70.40
810;DHT22;387;48.772;9.186;2023-04-03T05:22:39;4.90;70.10
810;DHT22;387;48.772;9.186;2023-04-03T05:25:05;4.90;69.90
810;DHT22;387;48.772;9.186;2023-04-03T05:27:31;4.80;69.90
810;DHT22;387;48.772;9.186;2023-04-03T05:29:57;4.80;69.70
810;DHT22;387;48.772;9.186;2023-04-03T05:32:23;4.80;70.20
810;DHT22;387;48.772;9.186;2023-04-03T05:34:50;4.70;70.50
810;DHT22;387;48.772;9.186;2023-04-03T05:37:17;4.60;70.70
810;DHT22;387;48.772;9.186;2023-04-03T05:39:42;4.60;71.00
810;DHT22;387;48.772;9.186;2023-04-03T05:42:08;4.60;71.10
810;DHT22;387;48.772;9.186;2023-04-03T05:44:33;4.70;71.10
810;DHT22;387;48.772;9.186;2023-04-03T05:46:59;4.70;71.30
810;DHT22;387;48.772;9.186;2023-04-03T05:49:25;4.60;71.30
810;DHT22;387;48.772;9.186;2023-04-03T05:51:51;4.60;71.70
810;DHT22;387;48.772;9.186;2023-04-03T05:54:30;4.50;72.00
810;DHT22;387;48.772;9.186;2023-04-03T05:56:55;4.60;72.70
810;DHT22;387;48.772;9.186;2023-04-03T05:59:21;4.60;72.10
810;DHT22;387;48.772;9.186;2023-04-03T06:01:47;4.50;71.70
810;DHT22;387;48.772;9.186;2023-04-03T06:04:13;4.60;72.00
810;DHT22;387;48.772;9.186;2023-04-03T06:06:47;4.60;71.70
810;DHT22;387;48.772;9.186;2023-04-03T06:09:15;4.60;72.00
810;DHT22;387;48.772;9.186;2023-04-03T06:11:42;4.70;71.70
810;DHT22;387;48.772;9.186;2023-04-03T06:14:08;4.70;71.40
810;DHT22;387;48.772;9.186;2023-04-03T06:16:34;4.80;71.70
810;DHT22;387;48.772;9.186;2023-04-03T06:18:59;4.80;71.70
810;DHT22;387;48.772;9.186;2023-04-03T06:21:26;4.70;71.40
810;DHT22;387;48.772;9.186;2023-04-03T06:23:52;4.70;71.80
810;DHT22;387;48.772;9.186;2023-04-03T06:26:17;4.80;71.80
810;DHT22;387;48.772;9.186;2023-04-03T06:28:43;4.70;71.30
810;DHT22;387;48.772;9.186;2023-04-03T06:31:09;4.60;71.80
810;DHT22;387;48.772;9.186;2023-04-03T06:33:34;4.60;72.00
810;DHT22;387;48.772;9.186;2023-04-03T06:36:03;4.70;72.10
810;DHT22;387;48.772;9.186;2023-04-03T06:38:28;4.60;71.70
810;DHT22;387;48.772;9.186;2023-04-03T06:40:54;4.50;72.10
810;DHT22;387;48.772;9.186;2023-04-03T06:43:20;4.30;72.40
810;DHT22;387;48.772;9.186;2023-04-03T06:45:46;4.40;72.60
810;DHT22;387;48.772;9.186;2023-04-03T06:48:12;4.50;72.70
810;DHT22;387;48.772;9.186;2023-04-03T06:50:38;4.50;72.30
810;DHT22;387;48.772;9.186;2023-04-03T06:53:04;4.60;72.40
810;DHT22;387;48.772;9.186;2023-04-03T06:55:29;4.70;72.40
810;DHT22;387;48.772;9.186;2023-04-03T06:57:55;4.80;72.40
810;DHT22;387;48.772;9.186;2023-04-03T07:00:21;4.80;72.40
810;DHT22;387;48.772;9.186;2023-04-03T07:02:47;4.80;72.30
810;DHT22;387;48.772;9.186;2023-04-03T07:05:12;4.70;72.10
810;DHT22;387;48.772;9.186;2023-04-03T07:07:38;4.60;72.30
810;DHT22;387;48.772;9.186;2023-04-03T07:10:05;4.70;72.60
810;DHT22;387;48.772;9.186;2023-04-03T07:12:31;4.80;72.40
810;DHT22;387;48.772;9.186;2023-04-03T07:15:00;4.80;72.30
810;DHT22;387;48.772;9.186;2023-04-03T07:17:25;4.80;72.30
810;DHT22;387;48.772;9.186;2023-04-03T07:19:52;4.80;72.10
810;DHT22;387;48.772;9.186;2023-04-03T07:22:17;4.90;72.00
810;DHT22;387;48.772;9.186;2023-04-03T07:24:43;4.80;71.80
810;DHT22;387;48.772;9.186;2023-04-03T07:27:09;4.70;72.30
810;DHT22;387;48.772;9.186;2023-04-03T07:29:35;4.80;72.40
810;DHT22;387;48.772;9.186;2023-04-03T07:32:02;4.90;72.30
810;DHT22;387;48.772;9.186;2023-04-03T07:34:27;5.10;72.30
810;DHT22;387;48.772;9.186;2023-04-03T07:36:53;5.20;71.70
810;DHT22;387;48.772;9.186;2023-04-03T07:39:19;5.20;71.60
810;DHT22;387;48.772;9.186;2023-04-03T07:41:44;5.00;71.70
810;DHT22;387;48.772;9.186;2023-04-03T07:44:10;5.10;72.10
810;DHT22;387;48.772;9.186;2023-04-03T07:46:36;5.20;71.80
810;DHT22;387;48.772;9.186;2023-04-03T07:49:02;5.10;71.70
810;DHT22;387;48.772;9.186;2023-04-03T07:51:27;5.10;72.30
810;DHT22;387;48.772;9.186;2023-04-03T07:53:55;5.30;72.00
810;DHT22;387;48.772;9.186;2023-04-03T07:56:20;5.40;71.70
810;DHT22;387;48.772;9.186;2023-04-03T07:58:46;5.40;71.40
810;DHT22;387;48.772;9.186;2023-04-03T08:01:12;5.60;71.30
810;DHT22;387;48.772;9.186;2023-04-03T08:03:39;5.70;71.10
810;DHT22;387;48.772;9.186;2023-04-03T08:06:07;5.80;71.10
810;DHT22;387;48.772;9.186;2023-04-03T08:08:33;5.80;71.10
810;DHT22;387;48.772;9.186;2023-04-03T08:11:01;5.80;70.80
810;DHT22;387;48.772;9.186;2023-04-03T08:13:28;5.80;70.70
810;DHT22;387;48.772;9.186;2023-04-03T08:15:54;5.80;70.40
810;DHT22;387;48.772;9.186;2023-04-03T08:18:22;5.60;70.40
810;DHT22;387;48.772;9.186;2023-04-03T08:20:50;5.30;71.80
810;DHT22;387;48.772;9.186;2023-04-03T08:23:15;5.40;72.00
810;DHT22;387;48.772;9.186;2023-04-03T08:25:42;5.50;72.10
810;DHT22;387;48.772;9.186;2023-04-03T08:28:09;5.40;71.80
810;DHT22;387;48.772;9.186;2023-04-03T08:30:35;5.60;71.70
810;DHT22;387;48.772;9.186;2023-04-03T08:33:02;5.80;71.60
810;DHT22;387;48.772;9.186;2023-04-03T08:35:28;6.00;71.10
810;DHT22;387;48.772;9.186;2023-04-03T08:37:53;6.00;70.70
810;DHT22;387;48.772;9.186;2023-04-03T08:40:19;5.90;71.00
810;DHT22;387;48.772;9.186;2023-04-03T08:42:54;5.80;71.30
810;DHT22;387;48.772;9.186;2023-04-03T08:45:45;5.80;71.60
810;DHT22;387;48.772;9.186;2023-04-03T08:48:14;6.00;71.10
810;DHT22;387;48.772;9.186;2023-04-03T08:50:46;6.00;70.80
810;DHT22;387;48.772;9.186;2023-04-03T08:53:16;5.90;71.30
810;DHT22;387;48.772;9.186;2023-04-03T08:55:50;5.90;71.10
810;DHT22;387;48.772;9.186;2023-04-03T08:58:19;5.90;71.40
810;DHT22;387;48.772;9.186;2023-04-03T09:01:03;5.80;71.30
810;DHT22;387;48.772;9.186;2023-04-03T09:03:31;5.90;71.60
810;DHT22;387;48.772;9.186;2023-04-03T09:06:14;5.90;71.30
810;DHT22;387;48.772;9.186;2023-04-03T09:09:15;6.00;70.50
810;DHT22;387;48.772;9.186;2023-04-03T09:12:04;6.10;70.70
810;DHT22;387;48.772;9.186;2023-04-03T09:22:33;6.40;69.20
810;DHT22;387;48.772;9.186;2023-04-03T09:25:17;6.40;69.40
810;DHT22;387;48.772;9.186;2023-04-03T09:27:44;6.40;68.80
810;DHT22;387;48.772;9.186;2023-04-03T09:30:23;6.40;68.90
810;DHT22;387;48.772;9.186;2023-04-03T09:32:51;6.30;68.90
810;DHT22;387;48.772;9.186;2023-04-03T09:37:51;6.20;69.20
810;DHT22;387;48.772;9.186;2023-04-03T09:42:53;6.20;69.50
810;DHT22;387;48.772;9.186;2023-04-03T09:48:07;6.30;68.90
810;DHT22;387;48.772;9.186;2023-04-03T09:50:34;6.30;68.30
810;DHT22;387;48.772;9.186;2023-04-03T09:53:29;6.30;68.30
810;DHT22;387;48.772;9.186;2023-04-03T09:55:53;6.40;67.60
810;DHT22;387;48.772;9.186;2023-04-03T09:58:37;6.40;67.30
810;DHT22;387;48.772;9.186;2023-04-03T10:01:03;6.40;67.50
810;DHT22;387;48.772;9.186;2023-04-03T10:03:34;6.00;68.00
810;DHT22;387;48.772;9.186;2023-04-03T10:06:02;6.00;69.10
810;DHT22;387;48.772;9.186;2023-04-03T10:08:34;6.10;69.20
810;DHT22;387;48.772;9.186;2023-04-03T10:11:17;6.30;69.20
810;DHT22;387;48.772;9.186;2023-04-03T10:13:55;6.40;68.60
810;DHT22;387;48.772;9.186;2023-04-03T10:21:45;6.50;67.00
810;DHT22;387;48.772;9.186;2023-04-03T10:24:23;6.60;66.90
810;DHT22;387;48.772;9.186;2023-04-03T10:35:20;7.00;65.40
810;DHT22;387;48.772;9.186;2023-04-03T10:46:33;6.40;66.60
810;DHT22;387;48.772;9.186;2023-04-03T10:51:44;6.40;67.20
810;DHT22;387;48.772;9.186;2023-04-03T10:56:51;6.60;66.30
810;DHT22;387;48.772;9.186;2023-04-03T10:59:32;6.80;65.70
810;DHT22;387;48.772;9.186;2023-04-03T11:04:47;6.90;64.40
810;DHT22;387;48.772;9.186;2023-04-03T11:07:22;6.80;63.90
810;DHT22;387;48.772;9.186;2023-04-03T11:09:52;6.70;64.20
810;DHT22;387;48.772;9.186;2023-04-03T11:12:44;6.60;64.10
810;DHT22;387;48.772;9.186;2023-04-03T11:15:29;6.70;64.10
810;DHT22;387;48.772;9.186;2023-04-03T11:18:21;6.80;62.60
810;DHT22;387;48.772;9.186;2023-04-03T11:21:19;7.00;62.20
810;DHT22;387;48.772;9.186;2023-04-03T11:23:44;7.10;61.00
810;DHT22;387;48.772;9.186;2023-04-03T11:26:22;7.00;60.90
810;DHT22;387;48.772;9.186;2023-04-03T11:29:00;7.00;60.30
810;DHT22;387;48.772;9.186;2023-04-03T11:34:33;6.70;60.90
810;DHT22;387;48.772;9.186;2023-04-03T11:37:00;6.50;62.20
810;DHT22;387;48.772;9.186;2023-04-03T11:39:34;6.70;62.90
810;DHT22;387;48.772;9.186;2023-04-03T11:42:37;6.60;62.00
810;DHT22;387;48.772;9.186;2023-04-03T11:47:52;6.70;62.60
810;DHT22;387;48.772;9.186;2023-04-03T12:00:59;6.80;61.30
810;DHT22;387;48.772;9.186;2023-04-03T12:13:38;7.10;59.70
810;DHT22;387;48.772;9.186;2023-04-03T12:16:22;7.10;60.40
810;DHT22;387;48.772;9.186;2023-04-03T12:21:15;6.70;61.70
810;DHT22;387;48.772;9.186;2023-04-03T12:38:02;7.10;59.70
810;DHT22;387;48.772;9.186;2023-04-03T12:51:40;7.10;59.30
810;DHT22;387;48.772;9.186;2023-04-03T12:54:31;7.10;58.70
810;DHT22;387;48.772;9.186;2023-04-03T12:57:16;7.10;59.10
810;DHT22;387;48.772;9.186;2023-04-03T12:59:42;6.90;58.20
810;DHT22;387;48.772;9.186;2023-04-03T13:02:21;6.90;58.80
810;DHT22;387;48.772;9.186;2023-04-03T13:04:50;7.00;58.80
810;DHT22;387;48.772;9.186;2023-04-03T13:07:29;7.10;58.80
810;DHT22;387;48.772;9.186;2023-04-03T13:10:22;7.40;58.50
810;DHT22;387;48.772;9.186;2023-04-03T13:12:49;7.70;56.90
810;DHT22;387;48.772;9.186;2023-04-03T13:15:22;7.90;55.40
810;DHT22;387;48.772;9.186;2023-04-03T13:17:48;8.00;55.30
810;DHT22;387;48.772;9.186;2023-04-03T13:25:17;7.90;53.70
810;DHT22;387;48.772;9.186;2023-04-03T13:27:45;8.00;53.80
810;DHT22;387;48.772;9.186;2023-04-03T13:30:28;8.00;54.00
810;DHT22;387;48.772;9.186;2023-04-03T13:32:56;8.20;53.70
810;DHT22;387;48.772;9.186;2023-04-03T13:35:36;8.40;52.80
810;DHT22;387;48.772;9.186;2023-04-03T13:38:27;8.20;53.20
810;DHT22;387;48.772;9.186;2023-04-03T13:40:56;7.90;53.20
810;DHT22;387;48.772;9.186;2023-04-03T13:43:28;7.80;53.60
810;DHT22;387;48.772;9.186;2023-04-03T13:46:04;7.90;53.00
810;DHT22;387;48.772;9.186;2023-04-03T13:51:13;8.20;52.60
810;DHT22;387;48.772;9.186;2023-04-03T13:53:48;8.40;52.60
810;DHT22;387;48.772;9.186;2023-04-03T13:56:20;8.40;52.00
810;DHT22;387;48.772;9.186;2023-04-03T14:01:21;7.90;51.20
810;DHT22;387;48.772;9.186;2023-04-03T14:03:59;8.00;51.70
810;DHT22;387;48.772;9.186;2023-04-03T14:06:26;8.10;52.10
810;DHT22;387;48.772;9.186;2023-04-03T14:08:53;8.00;52.10
810;DHT22;387;48.772;9.186;2023-04-03T14:11:22;8.00;52.10
810;DHT22;387;48.772;9.186;2023-04-03T14:13:49;7.90;53.20
810;DHT22;387;48.772;9.186;2023-04-03T14:16:19;8.00;53.30
810;DHT22;387;48.772;9.186;2023-04-03T14:18:46;8.00;53.00
810;DHT22;387;48.772;9.186;2023-04-03T14:21:14;7.50;53.60
810;DHT22;387;48.772;9.186;2023-04-03T14:23:40;7.20;54.80
810;DHT22;387;48.772;9.186;2023-04-03T14:26:14;7.40;54.50
810;DHT22;387;48.772;9.186;2023-04-03T14:28:41;7.50;53.60
810;DHT22;387;48.772;9.186;2023-04-03T14:31:07;7.40;53.70
810;DHT22;387;48.772;9.186;2023-04-03T14:33:33;7.40;54.20
810;DHT22;387;48.772;9.186;2023-04-03T14:36:01;7.50;54.20
810;DHT22;387;48.772;9.186;2023-04-03T14:38:29;7.50;54.10
810;DHT22;387;48.772;9.186;2023-04-03T14:40:57;7.90;52.50
810;DHT22;387;48.772;9.186;2023-04-03T14:43:23;8.60;50.50
810;DHT22;387;48.772;9.186;2023-04-03T14:45:49;9.10;48.70
810;DHT22;387;48.772;9.186;2023-04-03T14:48:19;9.30;47.80
810;DHT22;387;48.772;9.186;2023-04-03T14:50:45;9.50;47.80
810;DHT22;387;48.772;9.186;2023-04-03T14:53:12;9.50;47.70
810;DHT22;387;48.772;9.186;2023-04-03T14:55:44;9.00;47.50
810;DHT22;387;48.772;9.186;2023-04-03T14:58:15;8.60;48.70
810;DHT22;387;48.772;9.186;2023-04-03T15:00:41;8.30;49.70
810;DHT22;387;48.772;9.186;2023-04-03T15:03:17;8.30;50.60
810;DHT22;387;48.772;9.186;2023-04-03T15:05:48;8.20;50.30
810;DHT22;387;48.772;9.186;2023-04-03T15:08:22;8.20;50.90
810;DHT22;387;48.772;9.186;2023-04-03T15:10:49;8.10;50.30
810;DHT22;387;48.772;9.186;2023-04-03T15:13:15;7.90;50.60
810;DHT22;387;48.772;9.186;2023-04-03T15:15:41;7.90;50.60
810;DHT22;387;48.772;9.186;2023-04-03T15:18:11;8.00;50.50
810;DHT22;387;48.772;9.186;2023-04-03T15:20:39;8.00;49.80
810;DHT22;387;48.772;9.186;2023-04-03T15:23:04;7.70;51.00
810;DHT22;387;48.772;9.186;2023-04-03T15:25:31;7.80;50.50
810;DHT22;387;48.772;9.186;2023-04-03T15:27:58;8.00;49.70
810;DHT22;387;48.772;9.186;2023-04-03T15:30:23;8.20;49.40
810;DHT22;387;48.772;9.186;2023-04-03T15:32:49;8.50;47.80
810;DHT22;387;48.772;9.186;2023-04-03T15:35:15;8.20;47.10
810;DHT22;387;48.772;9.186;2023-04-03T15:37:41;8.00;47.10
810;DHT22;387;48.772;9.186;2023-04-03T15:40:07;8.00;48.30
810;DHT22;387;48.772;9.186;2023-04-03T15:42:33;7.90;47.90
810;DHT22;387;48.772;9.186;2023-04-03T15:44:59;7.90;48.90
810;DHT22;387;48.772;9.186;2023-04-03T15:47:25;7.70;49.30
810;DHT22;387;48.772;9.186;2023-04-03T15:49:52;7.60;50.50
810;DHT22;387;48.772;9.186;2023-04-03T15:52:18;7.70;50.90
810;DHT22;387;48.772;9.186;2023-04-03T15:54:43;8.10;50.20
810;DHT22;387;48.772;9.186;2023-04-03T15:57:09;8.60;48.60
810;DHT22;387;48.772;9.186;2023-04-03T15:59:35;8.70;47.40
810;DHT22;387;48.772;9.186;2023-04-03T16:02:01;8.70;47.10
810;DHT22;387;48.772;9.186;2023-04-03T16:04:29;8.70;47.70
810;DHT22;387;48.772;9.186;2023-04-03T16:06:55;8.50;47.40
810;DHT22;387;48.772;9.186;2023-04-03T16:09:21;8.40;47.80
810;DHT22;387;48.772;9.186;2023-04-03T16:11:46;8.50;48.10
810;DHT22;387;48.772;9.186;2023-04-03T16:14:12;8.60;47.10
810;DHT22;387;48.772;9.186;2023-04-03T16:16:38;8.50;47.30
810;DHT22;387;48.772;9.186;2023-04-03T16:19:04;8.40;47.50
810;DHT22;387;48.772;9.186;2023-04-03T16:21:31;8.50;47.50
810;DHT22;387;48.772;9.186;2023-04-03T16:23:58;8.40;47.30
810;DHT22;387;48.772;9.186;2023-04-03T16:26:24;8.20;46.50
810;DHT22;387;48.772;9.186;2023-04-03T16:28:51;7.80;46.60
810;DHT22;387;48.772;9.186;2023-04-03T16:31:16;7.50;47.70
810;DHT22;387;48.772;9.186;2023-04-03T16:33:46;7.50;47.90
810;DHT22;387;48.772;9.186;2023-04-03T16:36:15;7.50;48.30
810;DHT22;387;48.772;9.186;2023-04-03T16:38:40;7.40;48.10
810;DHT22;387;48.772;9.186;2023-04-03T16:41:06;7.40;49.70
810;DHT22;387;48.772;9.186;2023-04-03T16:43:32;7.50;48.10
810;DHT22;387;48.772;9.186;2023-04-03T16:45:58;7.70;49.40
810;DHT22;387;48.772;9.186;2023-04-03T16:48:24;7.80;48.50
810;DHT22;387;48.772;9.186;2023-04-03T16:50:49;7.90;48.10
810;DHT22;387;48.772;9.186;2023-04-03T16:53:19;8.00;48.10
810;DHT22;387;48.772;9.186;2023-04-03T16:55:44;8.00;47.90
810;DHT22;387;48.772;9.186;2023-04-03T16:58:10;7.90;48.50
810;DHT22;387;48.772;9.186;2023-04-03T17:00:36;7.90;49.40
810;DHT22;387;48.772;9.186;2023-04-03T17:03:02;7.90;49.50
810;DHT22;387;48.772;9.186;2023-04-03T17:05:27;7.80;49.00
810;DHT22;387;48.772;9.186;2023-04-03T17:07:53;7.90;49.50
810;DHT22;387;48.772;9.186;2023-04-03T17:10:19;7.80;49.10
810;DHT22;387;48.772;9.186;2023-04-03T17:12:44;7.70;49.50
810;DHT22;387;48.772;9.186;2023-04-03T17:15:10;7.80;49.40
810;DHT22;387;48.772;9.186;2023-04-03T17:17:36;7.70;49.00
810;DHT22;387;48.772;9.186;2023-04-03T17:20:02;7.70;49.00
810;DHT22;387;48.772;9.186;2023-04-03T17:22:29;7.60;49.40
810;DHT22;387;48.772;9.186;2023-04-03T17:24:55;7.60;49.40
810;DHT22;387;48.772;9.186;2023-04-03T17:27:21;7.60;50.10
810;DHT22;387;48.772;9.186;2023-04-03T17:29:46;7.50;50.20
810;DHT22;387;48.772;9.186;2023-04-03T17:32:12;7.30;50.20
810;DHT22;387;48.772;9.186;2023-04-03T17:34:37;7.20;50.10
810;DHT22;387;48.772;9.186;2023-04-03T17:37:04;7.10;50.60
810;DHT22;387;48.772;9.186;2023-04-03T17:39:30;7.00;51.20
810;DHT22;387;48.772;9.186;2023-04-03T17:41:56;7.00;51.40
810;DHT22;387;48.772;9.186;2023-04-03T17:44:21;7.00;51.70
810;DHT22;387;48.772;9.186;2023-04-03T17:46:47;7.00;52.10
810;DHT22;387;48.772;9.186;2023-04-03T17:49:13;6.90;52.00
810;DHT22;387;48.772;9.186;2023-04-03T17:51:40;6.90;51.70
810;DHT22;387;48.772;9.186;2023-04-03T17:54:06;6.80;52.10
810;DHT22;387;48.772;9.186;2023-04-03T17:56:32;6.90;52.20
810;DHT22;387;48.772;9.186;2023-04-03T17:58:57;6.90;52.00
810;DHT22;387;48.772;9.186;2023-04-03T18:01:28;6.90;52.40
810;DHT22;387;48.772;9.186;2023-04-03T18:03:56;6.90;52.10
810;DHT22;387;48.772;9.186;2023-04-03T18:06:26;6.90;52.40
810;DHT22;387;48.772;9.186;2023-04-03T18:08:56;6.90;52.60
810;DHT22;387;48.772;9.186;2023-04-03T18:11:26;6.90;52.90
810;DHT22;387;48.772;9.186;2023-04-03T18:13:53;6.90;53.00
810;DHT22;387;48.772;9.186;2023-04-03T18:16:19;6.90;53.00
810;DHT22;387;48.772;9.186;2023-04-03T18:18:45;6.80;53.00
810;DHT22;387;48.772;9.186;2023-04-03T18:21:13;6.80;53.00
810;DHT22;387;48.772;9.186;2023-04-03T18:23:41;6.70;53.20
810;DHT22;387;48.772;9.186;2023-04-03T18:26:08;6.70;53.30
810;DHT22;387;48.772;9.186;2023-04-03T18:28:35;6.60;53.60
810;DHT22;387;48.772;9.186;2023-04-03T18:31:01;6.60;53.30
810;DHT22;387;48.772;9.186;2023-04-03T18:33:27;6.60;53.60
810;DHT22;387;48.772;9.186;2023-04-03T18:35:53;6.60;54.00
810;DHT22;387;48.772;9.186;2023-04-03T18:38:18;6.60;54.10
810;DHT22;387;48.772;9.186;2023-04-03T18:40:44;6.60;54.10
810;DHT22;387;48.772;9.186;2023-04-03T18:43:12;6.50;54.20
810;DHT22;387;48.772;9.186;2023-04-03T18:45:38;6.50;54.50
810;DHT22;387;48.772;9.186;2023-04-03T18:48:04;6.40;54.10
810;DHT22;387;48.772;9.186;2023-04-03T18:50:29;6.30;54.20
810;DHT22;387;48.772;9.186;2023-04-03T18:52:55;6.30;54.50